Dodge City Regional Airport
KDDC : now visible

Airfield :











YOU CAN JOIN US ON...

 
LOGIN :

Register | Disclaimer

   EN    FR    IT 

 









Legend :    VFR   Marginal VFR   IFR   Intensive IFR   Very Intensive IFR
Visi :
Ceiling :
>= 8 km
>= 3000ft
5 to 8 km
1000 to 3000 ft
1500m to 5 km
500 to 1000 ft
800 to 1500m
200 to 500 ft
< 800m
< 200 ft
Symbols :   Thunderstorms  Fog  Heavy snow  Heavy precipitations  Wind > 20 kt







- Airport Elevation : 2594 ft
- IATA code : DDC


KDDC - Dodge City Regional

CURRENT METAR :
  • 210652Z AUTO 30007KT 8SM CLR 26/17 A2993 RMK AO2 SLP094 T02560167

EXPIRED METARs :
  • 210552Z AUTO 25011KT 9SM CLR 28/17 A2994 RMK AO2 SLP096 T02830172 10367 20283 404060250 53027
  • 210452Z AUTO 18010KT 9SM CLR 29/16 A2990 RMK AO2 SLP082 T02890161

TAF KDDC
Valid from the 21 at 06:00 until the 22 at 06:00 UTC


210520Z 2106/2206 18010KT P6SM BKN200 WS020/19035KT
TEMPO 2106/2110 4SM TS BR OVC025CB
FM211200 04006KT P6SM BKN200
FM220100 02012G20KT P6SM SCT200
KZKC FIR / North America



MET'MAP, your aeronautical weather chart ! - Copyright ORBIFLY December 2007 - Disclaimer

ORBIFLY MET'MAP TEAM :

Programming & Development : Alexandra Zaïnal
Concept & Development : Baudouin d'Aumeries
Co-Development & Prog : Marc-Olivier Méhu
Technical & hardware support : Manuel Goepfert

Contact : metmap@orbifly.com




SOURCES & CREDITS :

   NOAA       Earth
Advisory